Time;durP1;ratioP1;P1;durP2;ratioP2;P2;SDS_P1;SDS_P2;PMS_P1;PMS_P2;Temp;Humidity;BMP_temperature;BMP_pressure;BME280_temperature;BME280_humidity;BME280_pressure;Samples;Min_cycle;Max_cycle;Signal;HPM_P1;HPM_P2
2022/10/12 00:01:14;;;;;;;16.33;9.53;;;;;;;9.01;100.00;99308.28;4825150;29;20706;-62
2022/10/12 00:03:41;;;;;;;15.93;9.90;;;;;;;8.96;100.00;99307.00;4820091;29;20331;-62
2022/10/12 00:06:10;;;;;;;19.33;9.30;;;;;;;8.95;100.00;99303.56;4825410;29;20331;-62
2022/10/12 00:08:38;;;;;;;17.53;9.37;;;;;;;8.96;100.00;99302.63;4820121;29;20234;-62
2022/10/12 00:11:10;;;;;;;20.80;10.00;;;;;;;8.99;100.00;99301.56;4824392;29;20247;-62
2022/10/12 00:13:37;;;;;;;15.40;9.53;;;;;;;8.91;100.00;99301.34;4821991;29;20242;-62
2022/10/12 00:16:05;;;;;;;20.03;9.80;;;;;;;8.86;100.00;99307.75;4816069;29;20235;-62
2022/10/12 00:18:33;;;;;;;19.37;9.50;;;;;;;8.94;100.00;99306.31;4814493;29;20220;-62
2022/10/12 00:21:01;;;;;;;22.63;9.70;;;;;;;8.98;100.00;99302.50;4825119;29;20956;-62
2022/10/12 00:23:29;;;;;;;18.87;10.43;;;;;;;8.97;100.00;99299.06;4820287;29;20258;-62
2022/10/12 00:25:55;;;;;;;22.10;10.83;;;;;;;9.00;100.00;99301.41;4824651;29;20247;-62
2022/10/12 00:28:22;;;;;;;16.30;9.33;;;;;;;9.14;100.00;99296.88;4820258;29;20286;-62
2022/10/12 00:30:48;;;;;;;17.13;8.47;;;;;;;9.05;100.00;99298.44;4825722;29;20303;-62
2022/10/12 00:33:15;;;;;;;19.83;9.03;;;;;;;9.02;100.00;99303.88;4825610;29;20251;-62
2022/10/12 00:35:43;;;;;;;17.30;9.07;;;;;;;9.00;100.00;99296.22;4820464;29;20250;-62
2022/10/12 00:38:10;;;;;;;15.23;9.10;;;;;;;9.06;100.00;99307.91;4825392;29;20768;-62
2022/10/12 00:40:37;;;;;;;21.63;9.33;;;;;;;9.00;100.00;99305.81;4815578;29;20235;-62
2022/10/12 00:43:03;;;;;;;13.60;9.07;;;;;;;9.00;100.00;99300.59;4823555;29;20251;-62
2022/10/12 00:45:31;;;;;;;20.30;8.77;;;;;;;8.95;100.00;99302.75;4818274;29;20232;-62
2022/10/12 00:48:00;;;;;;;16.87;8.77;;;;;;;8.89;100.00;99306.66;4823630;29;20253;-62
2022/10/12 00:50:31;;;;;;;17.50;9.13;;;;;;;8.91;100.00;99304.75;4819482;29;20731;-62
2022/10/12 00:53:05;;;;;;;16.77;9.20;;;;;;;8.84;100.00;99306.19;4825369;29;20569;-62
2022/10/12 00:55:35;;;;;;;22.67;9.40;;;;;;;8.86;100.00;99312.09;4820982;29;20550;-62
2022/10/12 00:58:04;;;;;;;19.17;9.47;;;;;;;8.82;100.00;99305.50;4823804;29;20260;-62
2022/10/12 01:00:31;;;;;;;19.07;10.20;;;;;;;8.85;100.00;99311.31;4820888;29;20277;-62
2022/10/12 01:02:58;;;;;;;24.67;9.70;;;;;;;8.81;100.00;99311.66;4823975;29;20686;-62
2022/10/12 01:05:25;;;;;;;18.57;9.27;;;;;;;8.80;100.00;99313.44;4819519;29;20241;-62
2022/10/12 01:07:51;;;;;;;16.53;9.50;;;;;;;8.71;100.00;99309.78;4823945;29;20246;-62
2022/10/12 01:10:19;;;;;;;20.17;10.10;;;;;;;8.61;100.00;99319.25;4822687;29;20334;-62
2022/10/12 01:12:48;;;;;;;19.80;8.87;;;;;;;8.55;100.00;99317.13;4817959;29;20303;-62
2022/10/12 01:15:16;;;;;;;27.83;9.60;;;;;;;8.52;100.00;99320.81;4822918;29;20275;-62
2022/10/12 01:17:53;;;;;;;18.93;9.80;;;;;;;8.53;100.00;99321.63;4820033;29;20238;-62
2022/10/12 01:20:34;;;;;;;18.03;9.77;;;;;;;8.45;100.00;99319.63;4819060;29;20236;-62
2022/10/12 01:23:24;;;;;;;19.90;9.50;;;;;;;8.36;100.00;99313.38;4821326;29;20238;-62
2022/10/12 01:26:09;;;;;;;24.47;8.60;;;;;;;8.29;100.00;99314.78;4821143;29;20231;-62
2022/10/12 01:28:46;;;;;;;18.40;9.33;;;;;;;8.26;100.00;99312.44;4821779;29;20242;-62
2022/10/12 01:31:24;;;;;;;18.53;8.43;;;;;;;8.22;100.00;99313.63;4823472;29;20235;-62
2022/10/12 01:33:58;;;;;;;17.70;8.90;;;;;;;8.21;100.00;99307.56;4820236;29;20243;-62
2022/10/12 01:36:29;;;;;;;18.00;9.07;;;;;;;8.17;100.00;99302.75;4819211;29;20248;-62
2022/10/12 01:39:03;;;;;;;18.37;9.03;;;;;;;8.18;100.00;99309.59;4823128;29;20236;-62
2022/10/12 01:41:34;;;;;;;19.57;9.07;;;;;;;8.18;100.00;99304.38;4817598;29;20367;-62
2022/10/12 01:44:01;;;;;;;16.77;9.07;;;;;;;8.16;100.00;99307.09;4822284;29;20239;-62
2022/10/12 01:46:43;;;;;;;20.23;9.07;;;;;;;8.16;100.00;99306.28;4818763;29;20308;-62
2022/10/12 01:49:12;;;;;;;15.50;8.50;;;;;;;8.08;100.00;99307.69;4819948;29;20331;-62
2022/10/12 01:51:58;;;;;;;20.40;8.40;;;;;;;7.98;100.00;99306.75;4818501;29;20326;-62
2022/10/12 01:54:34;;;;;;;22.07;9.10;;;;;;;8.02;100.00;99318.56;4820091;29;20243;-62
2022/10/12 01:57:08;;;;;;;15.07;8.70;;;;;;;8.08;100.00;99317.25;4823104;29;20306;-62
2022/10/12 01:59:43;;;;;;;22.37;9.30;;;;;;;8.01;100.00;99316.91;4820710;29;20232;-62
2022/10/12 02:02:19;;;;;;;20.43;9.30;;;;;;;8.00;100.00;99315.25;4821614;29;20238;-62
2022/10/12 02:04:49;;;;;;;16.53;9.17;;;;;;;7.97;100.00;99312.88;4820262;29;20760;-62
2022/10/12 02:07:22;;;;;;;19.10;8.90;;;;;;;7.90;100.00;99312.53;4823046;29;20232;-62
2022/10/12 02:09:52;;;;;;;19.30;9.10;;;;;;;7.88;100.00;99305.78;4819113;29;20331;-62
2022/10/12 02:12:22;;;;;;;18.53;9.80;;;;;;;7.86;100.00;99308.53;4819704;29;20674;-62
2022/10/12 02:14:52;;;;;;;18.53;9.27;;;;;;;7.85;100.00;99308.63;4821803;29;20751;-62
2022/10/12 02:17:22;;;;;;;17.20;8.50;;;;;;;7.83;100.00;99306.16;4819837;29;20656;-62
2022/10/12 02:19:53;;;;;;;20.80;9.77;;;;;;;7.78;100.00;99296.09;4821608;29;20239;-62
2022/10/12 02:22:21;;;;;;;23.43;9.70;;;;;;;7.72;100.00;99293.94;4816007;29;20248;-62
2022/10/12 02:24:51;;;;;;;19.87;8.63;;;;;;;7.68;100.00;99298.56;4821005;29;20300;-62
2022/10/12 02:27:20;;;;;;;16.53;9.53;;;;;;;7.64;100.00;99296.28;4826300;29;20271;-62
2022/10/12 02:29:48;;;;;;;15.13;8.33;;;;;;;7.71;100.00;99300.09;4822577;29;20289;-62
2022/10/12 02:32:19;;;;;;;21.20;8.83;;;;;;;7.68;100.00;99295.97;4825655;29;20330;-62
2022/10/12 02:34:53;;;;;;;19.60;9.23;;;;;;;7.62;100.00;99306.81;4826346;29;20288;-62
2022/10/12 02:37:28;;;;;;;17.00;8.53;;;;;;;7.53;100.00;99299.72;4824692;29;20746;-62
2022/10/12 02:40:02;;;;;;;20.07;9.63;;;;;;;7.52;100.00;99298.88;4827764;29;20242;-63
2022/10/12 02:42:31;;;;;;;21.50;9.87;;;;;;;7.48;100.00;99299.22;4825513;29;20243;-63
2022/10/12 02:45:02;;;;;;;16.87;9.17;;;;;;;7.47;100.00;99293.19;4826636;29;20272;-63
2022/10/12 02:47:32;;;;;;;18.63;9.27;;;;;;;7.51;100.00;99297.22;4840104;29;20287;-63
2022/10/12 02:50:01;;;;;;;16.13;9.20;;;;;;;7.52;100.00;99292.88;4825982;29;20234;-63
2022/10/12 02:52:29;;;;;;;20.97;9.13;;;;;;;7.49;100.00;99291.31;4823153;29;20235;-62
2022/10/12 02:54:56;;;;;;;19.97;8.80;;;;;;;7.51;100.00;99292.03;4827523;29;20300;-62
2022/10/12 02:57:22;;;;;;;21.37;9.20;;;;;;;7.58;100.00;99289.81;4824926;29;20810;-62
2022/10/12 02:59:49;;;;;;;21.23;9.53;;;;;;;7.68;100.00;99295.97;4828846;29;20228;-62
2022/10/12 03:02:15;;;;;;;17.57;9.70;;;;;;;7.74;100.00;99292.06;5029210;23;20287;-63
2022/10/12 03:04:42;;;;;;;18.17;8.73;;;;;;;7.85;100.00;99295.63;4845653;29;20238;-63
2022/10/12 03:07:10;;;;;;;17.90;10.30;;;;;;;7.88;100.00;99290.19;4843837;29;20249;-63
2022/10/12 03:09:37;;;;;;;18.33;9.33;;;;;;;7.90;100.00;99280.50;4841646;29;20827;-63
2022/10/12 03:12:03;;;;;;;18.43;8.80;;;;;;;7.93;100.00;99285.47;4845470;29;20239;-63
2022/10/12 03:14:32;;;;;;;16.90;8.90;;;;;;;7.95;100.00;99287.00;4853662;23;20249;-56
2022/10/12 03:16:59;;;;;;;15.97;8.67;;;;;;;8.02;100.00;99287.38;4847792;29;20331;-56
2022/10/12 03:19:25;;;;;;;20.47;9.20;;;;;;;8.05;100.00;99286.28;4841908;29;20291;-57
2022/10/12 03:21:52;;;;;;;17.27;9.00;;;;;;;8.08;100.00;99278.25;4843001;29;20251;-57
2022/10/12 03:24:20;;;;;;;17.97;9.13;;;;;;;8.13;100.00;99287.38;4844293;29;20236;-57
2022/10/12 03:26:47;;;;;;;23.93;10.47;;;;;;;8.13;100.00;99291.72;4844381;29;20242;-57
2022/10/12 03:29:14;;;;;;;18.33;10.47;;;;;;;8.14;100.00;99285.59;4844835;29;20257;-58
2022/10/12 03:31:41;;;;;;;23.50;10.30;;;;;;;8.16;100.00;99295.88;4846112;29;20239;-56
2022/10/12 03:34:07;;;;;;;23.47;11.03;;;;;;;8.18;100.00;99294.81;4844816;29;20247;-58
2022/10/12 03:36:34;;;;;;;20.87;11.13;;;;;;;8.21;100.00;99289.38;4842864;29;20240;-58
2022/10/12 03:39:00;;;;;;;26.20;11.30;;;;;;;8.25;100.00;99295.16;4844194;29;20653;-58
2022/10/12 03:41:28;;;;;;;17.00;10.03;;;;;;;8.30;100.00;99289.59;4840012;29;20250;-58
2022/10/12 03:43:55;;;;;;;20.10;10.80;;;;;;;8.38;100.00;99298.47;4842398;29;20246;-57
2022/10/12 03:46:21;;;;;;;24.80;10.77;;;;;;;8.44;100.00;99296.34;4843981;29;20386;-58
2022/10/12 03:48:48;;;;;;;24.70;10.33;;;;;;;8.48;100.00;99303.78;4846433;29;20342;-58
2022/10/12 03:51:14;;;;;;;20.73;9.97;;;;;;;8.47;100.00;99301.31;4842651;29;20235;-57
2022/10/12 03:53:41;;;;;;;16.33;9.67;;;;;;;8.48;100.00;99305.56;4838867;29;20303;-56
2022/10/12 03:56:07;;;;;;;20.17;9.67;;;;;;;8.51;100.00;99300.94;4845653;29;20236;-58
2022/10/12 03:58:36;;;;;;;18.77;10.40;;;;;;;8.53;100.00;99308.63;4842443;29;20242;-57
2022/10/12 04:01:02;;;;;;;20.83;10.17;;;;;;;8.54;100.00;99305.06;4841246;29;20239;-57
2022/10/12 04:03:29;;;;;;;29.07;11.50;;;;;;;8.55;100.00;99304.97;4843694;29;20298;-57
2022/10/12 04:05:57;;;;;;;30.20;10.57;;;;;;;8.55;100.00;99312.78;4844019;29;20296;-56
2022/10/12 04:08:25;;;;;;;19.83;10.17;;;;;;;8.54;100.00;99310.28;4841089;29;20735;-55
2022/10/12 04:10:52;;;;;;;18.87;10.60;;;;;;;8.52;100.00;99305.22;4843626;29;20239;-56
2022/10/12 04:13:20;;;;;;;20.53;10.07;;;;;;;8.47;100.00;99309.09;4841712;29;20724;-54
2022/10/12 04:15:48;;;;;;;19.47;10.47;;;;;;;8.45;100.00;99314.41;4843056;29;20565;-56
2022/10/12 04:18:14;;;;;;;27.80;15.37;;;;;;;8.41;100.00;99308.63;4842141;29;20292;-57
2022/10/12 04:20:41;;;;;;;25.53;13.07;;;;;;;8.40;100.00;99304.38;4840676;29;20261;-57
2022/10/12 04:23:08;;;;;;;24.37;11.47;;;;;;;8.41;100.00;99311.25;4840424;29;20239;-57
2022/10/12 04:25:34;;;;;;;22.37;10.97;;;;;;;8.39;100.00;99320.09;4839223;29;20285;-56
2022/10/12 04:28:01;;;;;;;24.20;11.37;;;;;;;8.40;100.00;99320.00;4842513;29;20243;-57
2022/10/12 04:30:28;;;;;;;25.83;13.03;;;;;;;8.34;100.00;99325.66;4836833;29;20588;-54
2022/10/12 04:32:56;;;;;;;20.23;10.93;;;;;;;8.32;100.00;99332.75;4841422;29;20238;-56
2022/10/12 04:35:22;;;;;;;22.20;12.13;;;;;;;8.31;100.00;99322.47;4836893;29;20242;-57
2022/10/12 04:37:49;;;;;;;24.17;11.37;;;;;;;8.33;100.00;99329.22;4841677;29;20273;-56
2022/10/12 04:40:15;;;;;;;19.73;11.10;;;;;;;8.34;100.00;99330.88;4843133;29;20239;-57
2022/10/12 04:42:42;;;;;;;27.83;10.97;;;;;;;8.35;100.00;99334.28;4838240;29;20693;-57
2022/10/12 04:45:09;;;;;;;22.10;10.47;;;;;;;8.40;100.00;99338.19;4842508;29;20743;-57
2022/10/12 04:47:36;;;;;;;29.77;11.07;;;;;;;8.46;100.00;99338.69;4838565;29;20625;-58
2022/10/12 04:50:05;;;;;;;23.20;11.20;;;;;;;8.52;100.00;99340.78;4842744;29;20249;-58
2022/10/12 04:52:32;;;;;;;22.80;9.73;;;;;;;8.57;100.00;99336.91;4856777;29;20233;-56
2022/10/12 04:54:58;;;;;;;22.30;9.40;;;;;;;8.62;100.00;99336.53;4844955;29;20246;-58
2022/10/12 04:57:25;;;;;;;18.67;8.67;;;;;;;8.64;100.00;99339.84;4841582;29;20252;-57
2022/10/12 04:59:51;;;;;;;19.87;9.30;;;;;;;8.65;100.00;99343.28;4840245;29;20712;-59
2022/10/12 05:02:18;;;;;;;18.17;8.03;;;;;;;8.64;100.00;99337.22;4838703;29;20235;-57
2022/10/12 05:04:44;;;;;;;16.70;9.07;;;;;;;8.64;100.00;99339.84;4844685;29;20249;-57
2022/10/12 05:07:12;;;;;;;17.37;9.93;;;;;;;8.62;100.00;99344.34;4844578;29;20238;-55
2022/10/12 05:09:39;;;;;;;18.57;9.37;;;;;;;8.63;100.00;99348.59;4838588;29;20242;-56
2022/10/12 05:12:06;;;;;;;22.43;10.73;;;;;;;8.62;100.00;99339.13;4841766;29;20239;-57
2022/10/12 05:14:32;;;;;;;27.87;12.23;;;;;;;8.61;100.00;99342.69;4837497;29;20236;-56
2022/10/12 05:16:59;;;;;;;25.07;12.40;;;;;;;8.63;100.00;99343.38;4842474;29;20774;-58
2022/10/12 05:19:25;;;;;;;19.80;11.37;;;;;;;8.61;100.00;99342.69;4840115;29;20243;-57
2022/10/12 05:21:53;;;;;;;21.70;11.63;;;;;;;8.62;100.00;99348.72;4839723;29;20270;-58
2022/10/12 05:24:21;;;;;;;24.13;10.63;;;;;;;8.60;100.00;99341.03;4837733;29;20246;-57
2022/10/12 05:26:47;;;;;;;25.03;10.83;;;;;;;8.60;100.00;99345.41;4839520;29;20313;-55
2022/10/12 05:29:14;;;;;;;18.43;9.87;;;;;;;8.59;100.00;99348.97;4841685;29;20729;-56
2022/10/12 05:31:41;;;;;;;17.67;10.57;;;;;;;8.56;100.00;99345.66;4840684;29;20315;-56
2022/10/12 05:34:07;;;;;;;21.07;10.10;;;;;;;8.57;100.00;99333.47;4843667;29;20301;-57
2022/10/12 05:36:34;;;;;;;20.77;10.87;;;;;;;8.60;100.00;99330.63;4840145;29;20233;-57
2022/10/12 05:39:00;;;;;;;20.97;10.50;;;;;;;8.63;100.00;99332.16;4842227;29;20577;-57
2022/10/12 05:41:28;;;;;;;22.30;10.77;;;;;;;8.71;100.00;99333.19;4839048;29;21232;-58
2022/10/12 05:43:55;;;;;;;18.37;10.43;;;;;;;8.73;100.00;99329.66;4843459;29;20298;-57
2022/10/12 05:46:22;;;;;;;17.50;10.47;;;;;;;8.77;100.00;99328.47;4840940;29;20223;-56
2022/10/12 05:48:48;;;;;;;23.27;10.70;;;;;;;8.84;100.00;99330.47;4843391;29;20270;-58
2022/10/12 05:51:15;;;;;;;30.83;22.33;;;;;;;8.88;100.00;99325.84;4843999;29;20250;-58
2022/10/12 05:53:42;;;;;;;28.13;13.50;;;;;;;8.95;100.00;99331.41;4838271;29;20234;-57
2022/10/12 05:56:09;;;;;;;45.57;26.23;;;;;;;8.98;100.00;99341.56;4842344;29;20258;-58
2022/10/12 05:58:37;;;;;;;50.40;32.27;;;;;;;9.05;100.00;99334.88;4839721;29;20242;-56
2022/10/12 06:01:07;;;;;;;57.73;31.33;;;;;;;9.10;100.00;99332.75;4842508;29;20247;-57
2022/10/12 06:03:35;;;;;;;88.93;38.67;;;;;;;9.15;100.00;99330.59;4841962;29;20294;-57
2022/10/12 06:06:02;;;;;;;131.77;54.50;;;;;;;9.19;100.00;99339.00;4849912;29;20332;-56
2022/10/12 06:08:29;;;;;;;33.63;16.03;;;;;;;9.20;100.00;99335.44;4835915;29;20265;-58
2022/10/12 06:10:56;;;;;;;28.35;15.63;;;;;;;9.26;100.00;99340.16;4842447;29;20538;-58
2022/10/12 06:13:23;;;;;;;33.87;17.23;;;;;;;9.29;100.00;99341.66;4838906;29;20239;-57
2022/10/12 06:15:51;;;;;;;35.00;16.73;;;;;;;9.34;100.00;99339.53;4840202;29;20247;-58
2022/10/12 06:18:18;;;;;;;22.63;12.43;;;;;;;9.44;100.00;99344.81;4843974;29;20738;-57
2022/10/12 06:20:47;;;;;;;18.83;11.50;;;;;;;9.43;100.00;99338.78;4840097;29;20704;-58
2022/10/12 06:23:14;;;;;;;22.57;11.63;;;;;;;9.49;100.00;99339.22;4841371;29;20329;-57
2022/10/12 06:25:41;;;;;;;21.23;11.13;;;;;;;9.56;100.00;99338.56;4840068;29;20724;-57
2022/10/12 06:28:07;;;;;;;21.17;11.50;;;;;;;9.64;100.00;99339.72;4842526;29;20656;-58
2022/10/12 06:30:34;;;;;;;25.00;10.80;;;;;;;9.73;100.00;99341.56;4840579;29;20249;-59
2022/10/12 06:33:02;;;;;;;20.93;12.70;;;;;;;9.79;100.00;99348.06;4845031;29;20254;-59
2022/10/12 06:35:28;;;;;;;28.30;14.67;;;;;;;9.88;100.00;99349.91;4837357;29;20239;-59
2022/10/12 06:37:55;;;;;;;26.90;14.53;;;;;;;9.94;100.00;99353.78;4843979;29;20292;-58
2022/10/12 06:40:22;;;;;;;26.27;13.33;;;;;;;10.02;100.00;99341.75;4837502;29;20231;-59
2022/10/12 06:42:49;;;;;;;26.13;13.40;;;;;;;10.06;100.00;99357.97;4836482;29;20704;-57
2022/10/12 06:45:16;;;;;;;25.07;13.57;;;;;;;10.07;100.00;99354.41;4841859;29;20222;-57
2022/10/12 06:47:43;;;;;;;25.07;11.47;;;;;;;10.05;100.00;99361.53;4842888;29;20817;-56
2022/10/12 06:50:12;;;;;;;25.33;10.17;;;;;;;9.94;100.00;99359.81;4844400;29;20232;-58
2022/10/12 06:52:39;;;;;;;20.30;9.90;;;;;;;9.97;100.00;99362.19;4839507;29;20259;-58
2022/10/12 06:55:08;;;;;;;25.83;10.40;;;;;;;9.90;100.00;99361.03;4840161;29;20238;-58
2022/10/12 06:57:40;;;;;;;26.87;11.33;;;;;;;9.94;100.00;99364.19;4840684;29;20239;-54
2022/10/12 07:00:07;;;;;;;27.10;10.53;;;;;;;10.05;100.00;99366.75;4843119;29;20593;-56
2022/10/12 07:02:34;;;;;;;22.37;10.87;;;;;;;10.12;100.00;99356.59;4837491;29;20741;-55
2022/10/12 07:05:01;;;;;;;31.23;10.93;;;;;;;10.21;100.00;99360.22;4838648;29;20300;-58
2022/10/12 07:07:31;;;;;;;22.10;10.00;;;;;;;10.36;100.00;99363.31;4836793;29;20299;-57
2022/10/12 07:09:58;;;;;;;26.63;11.00;;;;;;;10.34;100.00;99358.22;4842635;29;20229;-56
2022/10/12 07:12:29;;;;;;;22.53;10.77;;;;;;;10.44;100.00;99363.50;4837490;29;20364;-55
2022/10/12 07:14:57;;;;;;;20.13;10.70;;;;;;;10.65;100.00;99367.84;4844255;29;20251;-57
2022/10/12 07:17:23;;;;;;;27.37;11.53;;;;;;;10.78;100.00;99369.25;4842252;29;20239;-58
2022/10/12 07:19:50;;;;;;;20.47;9.37;;;;;;;10.95;100.00;99369.56;4845444;29;20244;-58
2022/10/12 07:22:17;;;;;;;25.97;11.60;;;;;;;11.05;100.00;99373.00;4845567;29;20720;-56
2022/10/12 07:24:45;;;;;;;24.20;10.57;;;;;;;11.20;100.00;99373.44;4841738;29;20289;-57
2022/10/12 07:27:11;;;;;;;22.73;9.23;;;;;;;11.31;100.00;99376.88;4844377;29;20769;-58
2022/10/12 07:29:39;;;;;;;19.33;10.10;;;;;;;11.43;100.00;99370.56;4843341;29;20244;-58
2022/10/12 07:32:07;;;;;;;27.40;11.80;;;;;;;11.42;100.00;99368.09;4842848;29;20264;-57
2022/10/12 07:34:33;;;;;;;25.10;11.37;;;;;;;11.55;100.00;99376.47;4843712;29;20301;-57
2022/10/12 07:37:00;;;;;;;20.97;11.07;;;;;;;11.76;100.00;99371.09;4842883;29;20252;-57
2022/10/12 07:39:27;;;;;;;23.57;11.90;;;;;;;11.94;100.00;99368.56;4842797;29;20240;-57
2022/10/12 07:41:55;;;;;;;19.40;11.23;;;;;;;12.16;100.00;99378.88;4843691;29;20316;-57
2022/10/12 07:44:23;;;;;;;18.70;11.67;;;;;;;12.21;100.00;99374.03;4837989;29;20732;-58
2022/10/12 07:46:50;;;;;;;24.73;10.30;;;;;;;12.16;100.00;99373.66;4842624;29;20238;-58
2022/10/12 07:49:17;;;;;;;18.43;9.23;;;;;;;12.22;100.00;99373.06;4840633;29;20826;-56
2022/10/12 07:51:45;;;;;;;16.93;9.83;;;;;;;12.28;100.00;99363.81;4842212;29;20238;-57
2022/10/12 07:54:11;;;;;;;24.03;10.53;;;;;;;12.30;100.00;99367.13;4845148;29;20268;-57
2022/10/12 07:56:38;;;;;;;19.33;10.40;;;;;;;12.33;100.00;99366.84;4842131;29;23642;-56
2022/10/12 07:59:06;;;;;;;20.27;10.13;;;;;;;12.30;100.00;99372.34;4844907;29;20305;-57
2022/10/12 08:01:33;;;;;;;25.30;10.37;;;;;;;12.36;100.00;99372.59;4844329;29;20706;-57
2022/10/12 08:04:00;;;;;;;20.80;10.60;;;;;;;12.35;100.00;99381.41;4844729;29;20647;-58
2022/10/12 08:06:29;;;;;;;22.90;10.90;;;;;;;12.19;99.86;99376.78;4841385;29;20239;-58
2022/10/12 08:08:57;;;;;;;16.37;9.90;;;;;;;12.13;100.00;99369.50;4844740;29;20821;-58
2022/10/12 08:11:23;;;;;;;21.43;10.70;;;;;;;11.93;100.00;99369.53;4838112;29;20301;-57
2022/10/12 08:13:50;;;;;;;22.47;10.60;;;;;;;11.81;100.00;99368.03;4844747;29;20264;-58
2022/10/12 08:16:20;;;;;;;20.03;11.30;;;;;;;11.86;100.00;99368.44;4840058;29;20245;-57
2022/10/12 08:18:47;;;;;;;19.60;10.87;;;;;;;11.91;100.00;99371.44;4842479;29;20274;-56
2022/10/12 08:21:15;;;;;;;19.80;11.17;;;;;;;12.02;100.00;99375.75;4842697;29;20313;-59
2022/10/12 08:23:43;;;;;;;18.27;10.60;;;;;;;12.15;100.00;99377.22;4837681;29;20248;-56
2022/10/12 08:26:10;;;;;;;20.97;10.43;;;;;;;12.21;100.00;99377.47;4844014;29;20268;-57
2022/10/12 08:28:37;;;;;;;19.50;10.67;;;;;;;12.28;100.00;99382.94;4839717;29;20319;-56
2022/10/12 08:31:06;;;;;;;19.40;10.50;;;;;;;12.34;100.00;99374.53;4843144;29;20262;-56
2022/10/12 08:33:35;;;;;;;17.63;10.43;;;;;;;12.38;100.00;99383.75;4840424;29;20249;-57
2022/10/12 08:36:02;;;;;;;26.33;11.53;;;;;;;12.39;100.00;99376.72;4845699;29;20663;-57
2022/10/12 08:38:30;;;;;;;15.00;10.37;;;;;;;12.41;100.00;99374.78;4840386;29;20271;-57
2022/10/12 08:41:04;;;;;;;19.07;11.20;;;;;;;12.25;100.00;99373.59;4841120;29;20245;-57
2022/10/12 08:43:41;;;;;;;23.43;10.33;;;;;;;12.44;100.00;99378.91;4838271;29;20265;-58
2022/10/12 08:46:08;;;;;;;20.63;12.77;;;;;;;12.43;100.00;99374.63;4842424;29;20933;-56
2022/10/12 08:48:46;;;;;;;22.53;11.20;;;;;;;12.38;100.00;99368.03;4837387;29;20298;-57
2022/10/12 08:51:16;;;;;;;23.33;12.83;;;;;;;12.32;100.00;99371.22;4840049;29;20232;-57
2022/10/12 08:53:49;;;;;;;24.13;12.13;;;;;;;12.54;100.00;99377.91;4838406;29;20249;-56
2022/10/12 08:56:17;;;;;;;20.63;12.00;;;;;;;12.93;100.00;99376.03;4841482;29;20239;-58
2022/10/12 08:58:46;;;;;;;20.27;12.63;;;;;;;12.88;100.00;99378.25;4841045;29;20244;-56
2022/10/12 09:01:20;;;;;;;19.27;12.40;;;;;;;13.22;99.65;99386.34;4843680;29;20241;-57
2022/10/12 09:04:04;;;;;;;19.80;12.23;;;;;;;13.28;98.81;99383.09;4838420;29;20264;-56
2022/10/12 09:06:34;;;;;;;25.87;12.37;;;;;;;13.47;98.57;99380.50;4839170;29;20237;-56
2022/10/12 09:09:09;;;;;;;19.50;11.13;;;;;;;13.76;96.71;99384.69;4840040;29;20298;-57
2022/10/12 09:11:54;;;;;;;23.93;11.73;;;;;;;13.78;95.53;99386.16;4840818;29;20241;-54
2022/10/12 09:14:25;;;;;;;25.37;12.83;;;;;;;13.43;96.26;99391.31;4843951;29;20314;-57
2022/10/12 09:16:54;;;;;;;26.10;14.57;;;;;;;13.35;99.63;99391.19;4844316;29;20235;-57
2022/10/12 09:19:26;;;;;;;23.50;11.67;;;;;;;13.61;97.74;99405.38;4842330;29;20241;-55
2022/10/12 09:21:53;;;;;;;23.43;13.13;;;;;;;13.43;97.47;99390.47;4841034;29;20800;-56
2022/10/12 09:24:24;;;;;;;22.53;12.30;;;;;;;13.68;97.60;99399.38;4837150;29;20244;-57
2022/10/12 09:26:53;;;;;;;23.90;13.40;;;;;;;13.54;98.14;99394.66;4841339;29;20245;-55
2022/10/12 09:29:25;;;;;;;24.10;14.37;;;;;;;13.77;96.62;99397.63;4834716;29;20238;-56
2022/10/12 09:32:13;;;;;;;23.00;12.37;;;;;;;13.98;95.52;99399.09;4839815;29;20834;-56
2022/10/12 09:34:45;;;;;;;22.37;12.80;;;;;;;13.73;95.04;99405.00;4837271;29;20252;-54
2022/10/12 09:37:18;;;;;;;23.57;13.23;;;;;;;14.05;93.85;99402.75;4842296;29;20234;-56
2022/10/12 09:39:44;;;;;;;25.80;13.30;;;;;;;14.10;93.33;99404.91;4836257;29;20697;-55
2022/10/12 09:42:11;;;;;;;26.10;13.67;;;;;;;14.29;93.03;99402.06;4842212;29;20243;-56
2022/10/12 09:44:40;;;;;;;23.73;12.80;;;;;;;14.41;91.66;99413.13;4835792;29;20278;-57
2022/10/12 09:47:25;;;;;;;23.17;14.17;;;;;;;14.56;90.98;99412.53;4838425;29;20244;-57
2022/10/12 09:49:57;;;;;;;22.73;13.23;;;;;;;14.40;90.09;99411.47;4840217;29;20240;-56
2022/10/12 09:52:29;;;;;;;28.73;13.87;;;;;;;14.39;93.00;99404.56;4839089;29;20238;-56
2022/10/12 09:54:59;;;;;;;22.33;13.37;;;;;;;14.73;88.99;99400.34;4839734;29;20775;-58
2022/10/12 09:57:29;;;;;;;24.47;12.13;;;;;;;14.70;88.79;99403.28;4839840;29;20273;-58
2022/10/12 09:59:55;;;;;;;25.43;13.00;;;;;;;14.76;89.99;99405.28;4843077;29;20296;-57
2022/10/12 10:02:23;;;;;;;24.73;13.20;;;;;;;14.97;87.05;99399.59;4839329;29;20247;-57
2022/10/12 10:04:52;;;;;;;24.23;12.50;;;;;;;14.94;89.28;99393.81;4842443;29;20238;-57
2022/10/12 10:07:26;;;;;;;22.97;13.30;;;;;;;15.05;87.35;99393.50;4840883;29;20249;-56
2022/10/12 10:10:15;;;;;;;26.37;13.63;;;;;;;15.08;86.80;99395.00;4842092;29;20333;-56
2022/10/12 10:12:48;;;;;;;22.67;13.70;;;;;;;15.08;87.53;99395.81;4830643;29;20342;-55
2022/10/12 10:15:22;;;;;;;22.90;13.00;;;;;;;14.97;86.75;99389.06;4838608;29;20329;-57
2022/10/12 10:17:52;;;;;;;21.60;13.40;;;;;;;14.97;86.22;99394.31;4836594;29;20238;-57
2022/10/12 10:20:28;;;;;;;24.83;13.20;;;;;;;14.90;88.80;99393.31;4837307;29;20727;-58
2022/10/12 10:22:56;;;;;;;24.13;13.53;;;;;;;14.72;88.27;99394.25;4840534;29;20699;-58
2022/10/12 10:25:24;;;;;;;27.37;14.20;;;;;;;14.78;88.92;99391.97;4837678;29;20287;-57
2022/10/12 10:28:09;;;;;;;24.63;14.63;;;;;;;14.40;88.68;99394.91;4839127;29;20675;-57
2022/10/12 10:30:35;;;;;;;23.37;13.50;;;;;;;14.12;91.25;99392.44;4840814;29;20759;-57
2022/10/12 10:33:23;;;;;;;27.80;15.73;;;;;;;14.06;93.25;99395.69;4843553;29;20902;-57
2022/10/12 10:36:06;;;;;;;24.50;15.03;;;;;;;14.05;93.38;99394.03;4839409;29;20679;-56
2022/10/12 10:38:54;;;;;;;33.00;15.00;;;;;;;13.72;96.03;99389.41;4839388;29;20248;-57
2022/10/12 10:41:35;;;;;;;33.40;15.80;;;;;;;13.73;96.10;99385.78;4838793;29;20240;-56
2022/10/12 10:44:02;;;;;;;29.63;16.53;;;;;;;13.92;96.13;99384.78;4841141;29;20331;-57
2022/10/12 10:46:32;;;;;;;27.30;15.47;;;;;;;13.79;95.17;99392.22;4838858;29;20241;-56
2022/10/12 10:49:05;;;;;;;31.20;15.27;;;;;;;13.77;95.93;99383.72;4843622;29;20459;-57
2022/10/12 10:51:44;;;;;;;27.50;16.13;;;;;;;13.78;95.72;99382.72;4843985;29;20607;-57
2022/10/12 10:54:16;;;;;;;27.93;16.00;;;;;;;13.78;97.12;99383.53;4842708;29;20241;-57
2022/10/12 10:56:45;;;;;;;26.90;16.17;;;;;;;13.80;96.96;99380.75;4840873;29;20238;-56
2022/10/12 10:59:19;;;;;;;28.53;16.07;;;;;;;13.96;96.35;99382.69;4844574;29;20233;-57
2022/10/12 11:01:52;;;;;;;29.73;15.93;;;;;;;13.91;94.90;99375.25;4843763;29;20241;-56
2022/10/12 11:04:24;;;;;;;30.13;16.13;;;;;;;14.03;96.01;99375.84;4842353;29;20237;-58
2022/10/12 11:06:54;;;;;;;25.87;15.87;;;;;;;13.95;95.62;99371.34;4844590;29;20260;-56
2022/10/12 11:09:28;;;;;;;27.53;16.03;;;;;;;13.96;96.51;99373.00;4841772;29;20230;-57
2022/10/12 11:11:59;;;;;;;27.20;15.17;;;;;;;14.13;95.53;99370.47;4842677;29;20786;-57
2022/10/12 11:14:33;;;;;;;27.67;15.07;;;;;;;14.24;96.08;99367.56;4829381;29;20321;-57
2022/10/12 11:17:05;;;;;;;30.30;15.23;;;;;;;14.26;94.74;99365.63;4844639;29;20257;-57
2022/10/12 11:19:41;;;;;;;24.07;13.43;;;;;;;14.39;93.93;99367.00;4838554;29;20293;-57
2022/10/12 11:22:15;;;;;;;23.57;14.33;;;;;;;14.44;92.59;99369.97;4840558;29;20332;-55
2022/10/12 11:24:47;;;;;;;23.20;14.07;;;;;;;14.40;92.80;99361.56;4839034;29;20250;-58
2022/10/12 11:27:22;;;;;;;28.10;15.53;;;;;;;14.37;92.30;99358.44;4845474;29;20285;-57
2022/10/12 11:30:00;;;;;;;25.27;15.10;;;;;;;14.35;93.78;99357.78;4844548;29;20225;-57